Ossipee, New Hampshire
Current Conditions -  °F | °C
As of 3:15 AM on Thursday 29 Jan 2015 (Local Time) from KLCI Reporting Station
Clear Clear  
Wind Chill: -8°   Ceiling: Unl
Heat Index:   Visibility: 10mi
Dew Point: -2°   Wind: 5mph
Humidity: 85%   Direction: 260°W
Pressure: 30.23"   Gusts: NA
Location:  43.69°N, 71.12°W
Report Text: KLCI 290815Z AUTO 26004KT 10SM CLR M17/M19 A3023 RMK AO1
Loading
Personal Weather Stations






























Interactive Weather Map New forecast layout! Learn more

10-Day Weather Forecast

Advertisements
Track Severe Weather on mobile